Time;durP1;ratioP1;P1;durP2;ratioP2;P2;SDS_P1;SDS_P2;PMS_P1;PMS_P2;Temp;Humidity;BMP_temperature;BMP_pressure;BME280_temperature;BME280_humidity;BME280_pressure;Samples;Min_cycle;Max_cycle;Signal;HPM_P1;HPM_P2
2023/01/06 00:00:31;;;;;;;10.53;6.07;;;;;;;;;;5093992;28;20431;-73
2023/01/06 00:02:58;;;;;;;9.20;5.17;;;;;;;;;;5093850;28;20446;-73
2023/01/06 00:05:25;;;;;;;14.47;6.13;;;;;;;;;;5093213;28;20822;-73
2023/01/06 00:07:53;;;;;;;11.20;5.00;;;;;;;;;;5093551;28;20490;-73
2023/01/06 00:10:20;;;;;;;7.73;5.70;;;;;;;;;;5094103;28;20459;-73
2023/01/06 00:12:48;;;;;;;14.17;5.97;;;;;;;;;;5094154;28;20461;-73
2023/01/06 00:15:16;;;;;;;11.50;5.50;;;;;;;;;;5093924;28;20459;-73
2023/01/06 00:17:44;;;;;;;15.90;6.30;;;;;;;;;;5093475;28;21010;-73
2023/01/06 00:20:12;;;;;;;10.07;6.50;;;;;;;;;;5093717;28;20959;-73
2023/01/06 00:22:40;;;;;;;14.23;5.90;;;;;;;;;;5093757;28;20982;-73
2023/01/06 00:25:09;;;;;;;12.67;6.20;;;;;;;;;;5093599;28;20874;-73
2023/01/06 00:27:36;;;;;;;15.30;8.20;;;;;;;;;;5093594;28;21021;-73
2023/01/06 00:30:03;;;;;;;8.83;5.80;;;;;;;;;;5092651;28;20828;-73
2023/01/06 00:32:30;;;;;;;8.20;6.83;;;;;;;;;;5093552;28;20482;-72
2023/01/06 00:34:59;;;;;;;14.83;8.17;;;;;;;;;;5093014;28;20465;-73
2023/01/06 00:37:26;;;;;;;14.13;9.03;;;;;;;;;;5093522;28;20823;-73
2023/01/06 00:39:53;;;;;;;14.90;8.63;;;;;;;;;;5093603;28;20856;-72
2023/01/06 00:42:21;;;;;;;17.27;6.97;;;;;;;;;;5093445;28;20455;-72
2023/01/06 00:44:48;;;;;;;10.80;7.43;;;;;;;;;;5092437;28;20512;-72
2023/01/06 00:47:15;;;;;;;17.97;7.80;;;;;;;;;;5093180;28;20486;-72
2023/01/06 00:49:42;;;;;;;17.00;7.27;;;;;;;;;;5092897;28;20471;-72
2023/01/06 00:52:11;;;;;;;10.87;7.53;;;;;;;;;;5092909;28;20958;-72
2023/01/06 00:54:38;;;;;;;16.30;8.50;;;;;;;;;;5092834;28;20447;-72
2023/01/06 00:57:07;;;;;;;11.90;7.20;;;;;;;;;;5092973;28;20443;-73
2023/01/06 00:59:34;;;;;;;14.97;8.87;;;;;;;;;;5092733;28;20543;-72
2023/01/06 01:02:01;;;;;;;13.60;8.03;;;;;;;;;;5093213;28;20529;-71
2023/01/06 01:04:29;;;;;;;18.23;9.50;;;;;;;;;;5092552;28;20442;-71
2023/01/06 01:06:56;;;;;;;16.47;8.57;;;;;;;;;;5093762;28;20852;-71
2023/01/06 01:09:25;;;;;;;18.80;9.90;;;;;;;;;;5097724;28;20473;-71
2023/01/06 01:12:11;;;;;;;14.17;8.60;;;;;;;;;;5097228;28;20458;-72
2023/01/06 01:14:39;;;;;;;18.70;8.60;;;;;;;;;;5097120;28;20891;-71
2023/01/06 01:17:06;;;;;;;12.87;8.40;;;;;;;;;;5097199;28;20499;-71
2023/01/06 01:19:33;;;;;;;16.30;8.40;;;;;;;;;;5096984;28;20470;-71
2023/01/06 01:22:01;;;;;;;16.43;9.27;;;;;;;;;;5096733;28;20458;-71
2023/01/06 01:24:29;;;;;;;15.93;9.60;;;;;;;;;;5096910;28;20450;-71
2023/01/06 01:26:57;;;;;;;19.80;10.40;;;;;;;;;;5097521;28;20853;-71
2023/01/06 01:29:24;;;;;;;16.10;9.00;;;;;;;;;;5096314;28;20474;-71
2023/01/06 01:31:51;;;;;;;15.17;9.73;;;;;;;;;;5096991;28;20443;-71
2023/01/06 01:34:18;;;;;;;24.13;10.90;;;;;;;;;;5096644;28;20455;-72
2023/01/06 01:36:46;;;;;;;17.13;11.10;;;;;;;;;;5096678;28;20459;-72
2023/01/06 01:39:14;;;;;;;15.30;9.57;;;;;;;;;;5096472;28;20482;-72
2023/01/06 01:41:42;;;;;;;25.40;11.87;;;;;;;;;;5096703;28;20454;-72
2023/01/06 01:44:28;;;;;;;16.97;10.73;;;;;;;;;;5095937;28;20446;-72
2023/01/06 01:46:55;;;;;;;37.97;24.43;;;;;;;;;;5096227;28;20969;-72
2023/01/06 01:49:24;;;;;;;26.83;16.53;;;;;;;;;;5096153;28;20466;-72
2023/01/06 01:51:52;;;;;;;22.50;10.87;;;;;;;;;;5096335;28;20454;-72
2023/01/06 01:54:21;;;;;;;14.30;10.83;;;;;;;;;;5095706;28;20447;-72
2023/01/06 01:56:52;;;;;;;17.00;10.43;;;;;;;;;;5096031;28;20450;-72
2023/01/06 01:59:20;;;;;;;16.63;11.30;;;;;;;;;;5095886;28;20471;-72
2023/01/06 02:01:48;;;;;;;18.87;11.93;;;;;;;;;;5096191;28;20481;-72
2023/01/06 02:04:15;;;;;;;21.77;12.03;;;;;;;;;;5096048;28;20447;-72
2023/01/06 02:06:44;;;;;;;31.83;18.07;;;;;;;;;;5095960;28;20520;-72
2023/01/06 02:09:14;;;;;;;23.33;15.07;;;;;;;;;;5095728;28;20494;-72
2023/01/06 02:11:42;;;;;;;25.07;13.40;;;;;;;;;;5096295;28;20455;-72
2023/01/06 02:14:12;;;;;;;16.30;10.13;;;;;;;;;;5095355;28;20451;-72
2023/01/06 02:16:44;;;;;;;19.93;12.30;;;;;;;;;;5095708;28;20962;-72
2023/01/06 02:19:19;;;;;;;26.70;11.67;;;;;;;;;;5095046;28;20469;-72
2023/01/06 02:21:53;;;;;;;22.03;11.57;;;;;;;;;;5095856;28;20457;-72
2023/01/06 02:24:38;;;;;;;23.00;12.30;;;;;;;;;;5095992;28;20443;-72
2023/01/06 02:27:23;;;;;;;17.73;12.17;;;;;;;;;;5095843;28;20830;-72
2023/01/06 02:30:07;;;;;;;14.40;10.67;;;;;;;;;;5095511;28;20835;-72
2023/01/06 02:32:41;;;;;;;21.20;11.07;;;;;;;;;;5096062;28;20439;-72
2023/01/06 02:35:15;;;;;;;15.50;10.70;;;;;;;;;;5095801;28;20435;-72
2023/01/06 02:37:46;;;;;;;16.90;11.13;;;;;;;;;;5095291;28;20431;-72
2023/01/06 02:40:22;;;;;;;16.20;9.90;;;;;;;;;;5095717;28;20427;-72
2023/01/06 02:42:54;;;;;;;13.03;9.67;;;;;;;;;;5095734;28;20807;-72
2023/01/06 02:45:23;;;;;;;11.97;9.10;;;;;;;;;;5095158;28;20435;-72
2023/01/06 02:47:57;;;;;;;13.40;8.70;;;;;;;;;;5095116;28;20486;-72
2023/01/06 02:50:26;;;;;;;15.47;10.03;;;;;;;;;;5095264;28;20446;-72
2023/01/06 02:52:56;;;;;;;10.83;8.20;;;;;;;;;;5094943;28;20860;-72
2023/01/06 02:55:26;;;;;;;13.00;8.93;;;;;;;;;;5094645;28;20438;-72
2023/01/06 02:57:56;;;;;;;12.60;8.97;;;;;;;;;;5095113;28;20864;-72
2023/01/06 03:00:27;;;;;;;10.57;8.37;;;;;;;;;;5095079;28;20553;-72
2023/01/06 03:02:57;;;;;;;12.83;9.87;;;;;;;;;;5094845;28;20973;-72
2023/01/06 03:05:25;;;;;;;16.20;10.10;;;;;;;;;;5094653;28;20446;-72
2023/01/06 03:07:53;;;;;;;13.33;8.97;;;;;;;;;;5094637;28;20490;-72
2023/01/06 03:10:24;;;;;;;14.30;9.67;;;;;;;;;;5094868;28;20455;-72
2023/01/06 03:12:53;;;;;;;17.43;9.83;;;;;;;;;;5094898;28;20531;-72
2023/01/06 03:15:20;;;;;;;17.60;10.80;;;;;;;;;;5094377;28;20962;-72
2023/01/06 03:17:47;;;;;;;18.20;10.50;;;;;;;;;;5094919;28;20991;-72
2023/01/06 03:20:16;;;;;;;15.00;9.40;;;;;;;;;;5094703;28;20453;-72
2023/01/06 03:22:43;;;;;;;15.43;11.03;;;;;;;;;;5094595;28;20871;-72
2023/01/06 03:25:11;;;;;;;11.83;8.83;;;;;;;;;;5094674;28;21057;-72
2023/01/06 03:27:38;;;;;;;16.10;11.40;;;;;;;;;;5094293;28;20487;-72
2023/01/06 03:30:08;;;;;;;18.47;10.43;;;;;;;;;;5093848;28;20451;-72
2023/01/06 03:32:40;;;;;;;14.57;10.10;;;;;;;;;;5094450;28;20927;-72
2023/01/06 03:35:15;;;;;;;14.07;10.50;;;;;;;;;;5094607;28;20838;-72
2023/01/06 03:37:49;;;;;;;13.07;9.70;;;;;;;;;;5094349;28;20434;-72
2023/01/06 03:40:21;;;;;;;14.83;10.17;;;;;;;;;;5094565;28;20895;-72
2023/01/06 03:45:42;;;;;;;12.87;8.97;;;;;;;;;;5094180;28;20529;-72
2023/01/06 03:48:11;;;;;;;13.63;8.43;;;;;;;;;;5093844;28;20529;-72
2023/01/06 03:50:40;;;;;;;13.20;10.10;;;;;;;;;;5094221;28;20447;-72
2023/01/06 03:53:16;;;;;;;12.63;9.23;;;;;;;;;;5094288;28;20446;-72
2023/01/06 03:55:45;;;;;;;14.70;9.20;;;;;;;;;;5093744;28;20437;-72
2023/01/06 03:58:13;;;;;;;11.93;8.70;;;;;;;;;;5094013;28;21089;-72
2023/01/06 04:00:40;;;;;;;12.00;8.90;;;;;;;;;;5093811;28;20442;-72
2023/01/06 04:03:09;;;;;;;14.83;8.90;;;;;;;;;;5094055;28;20970;-72
2023/01/06 04:05:36;;;;;;;11.10;9.23;;;;;;;;;;5093535;28;20451;-72
2023/01/06 04:08:03;;;;;;;13.40;9.00;;;;;;;;;;5093680;28;20501;-72
2023/01/06 04:10:32;;;;;;;15.57;9.17;;;;;;;;;;5093710;28;20451;-72
2023/01/06 04:12:58;;;;;;;13.73;9.60;;;;;;;;;;5093877;28;20546;-72
2023/01/06 04:15:28;;;;;;;15.20;7.87;;;;;;;;;;5093640;28;20458;-72
2023/01/06 04:17:57;;;;;;;13.80;9.77;;;;;;;;;;5093375;28;20475;-72
2023/01/06 04:20:25;;;;;;;15.77;9.83;;;;;;;;;;5093499;28;20459;-72
2023/01/06 04:22:53;;;;;;;17.93;10.50;;;;;;;;;;5093537;28;20801;-72
2023/01/06 04:25:21;;;;;;;15.17;10.10;;;;;;;;;;5093317;28;20459;-72
2023/01/06 04:27:49;;;;;;;13.27;9.33;;;;;;;;;;5093635;28;20477;-72
2023/01/06 04:30:16;;;;;;;16.10;9.60;;;;;;;;;;5092572;28;20454;-72
2023/01/06 04:32:44;;;;;;;12.43;9.53;;;;;;;;;;5093786;28;20438;-72
2023/01/06 04:35:11;;;;;;;14.73;9.57;;;;;;;;;;5093882;28;20454;-72
2023/01/06 04:37:38;;;;;;;13.53;9.73;;;;;;;;;;5093405;28;20954;-72
2023/01/06 04:40:06;;;;;;;14.50;8.77;;;;;;;;;;5093177;28;20451;-72
2023/01/06 04:43:03;;;;;;;12.73;8.67;;;;;;;;;;5093118;28;20525;-72
2023/01/06 04:45:22;;;;;;;11.80;9.47;;;;;;;;;;5092934;28;20533;-72
2023/01/06 04:47:49;;;;;;;16.70;8.87;;;;;;;;;;5093214;28;20474;-72
2023/01/06 04:50:17;;;;;;;11.50;8.97;;;;;;;;;;5093383;28;20454;-72
2023/01/06 04:52:44;;;;;;;15.70;10.40;;;;;;;;;;5093402;28;20462;-72
2023/01/06 04:55:11;;;;;;;14.63;9.47;;;;;;;;;;5092833;28;20451;-72
2023/01/06 04:57:38;;;;;;;20.90;14.63;;;;;;;;;;5093068;28;20868;-72
2023/01/06 05:00:06;;;;;;;21.27;12.00;;;;;;;;;;5092952;28;20447;-72
2023/01/06 05:02:34;;;;;;;14.47;11.00;;;;;;;;;;5093170;28;20457;-72
2023/01/06 05:05:01;;;;;;;23.40;14.53;;;;;;;;;;5092672;28;20455;-72
2023/01/06 05:07:28;;;;;;;16.40;10.40;;;;;;;;;;5092894;28;20447;-72
2023/01/06 05:09:55;;;;;;;17.83;11.23;;;;;;;;;;5093132;28;20871;-72
2023/01/06 05:12:23;;;;;;;15.70;10.43;;;;;;;;;;5093063;28;20455;-72
2023/01/06 05:14:50;;;;;;;17.43;11.93;;;;;;;;;;5092293;28;20451;-72
2023/01/06 05:17:17;;;;;;;17.00;11.90;;;;;;;;;;5093078;28;21019;-72
2023/01/06 05:19:45;;;;;;;18.13;11.47;;;;;;;;;;5092817;28;20990;-72
2023/01/06 05:22:12;;;;;;;21.23;14.77;;;;;;;;;;5092776;28;20824;-72
2023/01/06 05:24:39;;;;;;;19.90;12.90;;;;;;;;;;5092409;28;20955;-71
2023/01/06 05:27:07;;;;;;;17.17;11.10;;;;;;;;;;5092864;28;20931;-71
2023/01/06 05:29:34;;;;;;;18.80;12.90;;;;;;;;;;5091429;28;20493;-71
2023/01/06 05:32:01;;;;;;;19.20;14.60;;;;;;;;;;5092575;28;20492;-72
2023/01/06 05:34:28;;;;;;;18.40;13.50;;;;;;;;;;5092567;28;20903;-72
2023/01/06 05:36:57;;;;;;;21.17;13.83;;;;;;;;;;5092472;28;20446;-72
2023/01/06 05:39:25;;;;;;;17.47;13.50;;;;;;;;;;5092479;28;20555;-71
2023/01/06 05:41:52;;;;;;;28.90;17.30;;;;;;;;;;5092486;28;20455;-72
2023/01/06 05:44:19;;;;;;;22.47;14.90;;;;;;;;;;5092080;28;20457;-72
2023/01/06 05:46:46;;;;;;;25.83;14.20;;;;;;;;;;5092431;28;20450;-72
2023/01/06 05:49:13;;;;;;;24.37;14.77;;;;;;;;;;5092634;28;20487;-72
2023/01/06 05:51:40;;;;;;;26.37;15.87;;;;;;;;;;5092403;28;20957;-71
2023/01/06 05:54:09;;;;;;;21.50;14.03;;;;;;;;;;5093517;28;20935;-72
2023/01/06 05:56:37;;;;;;;20.50;13.67;;;;;;;;;;5096092;28;20979;-72
2023/01/06 05:59:04;;;;;;;30.33;17.60;;;;;;;;;;5095980;28;20474;-71
2023/01/06 06:01:32;;;;;;;23.93;14.10;;;;;;;;;;5096259;28;20958;-71
2023/01/06 06:03:59;;;;;;;22.03;14.93;;;;;;;;;;5095718;28;20462;-72
2023/01/06 06:06:27;;;;;;;19.87;13.63;;;;;;;;;;5095856;28;20473;-72
2023/01/06 06:08:54;;;;;;;21.87;13.93;;;;;;;;;;5095733;28;21065;-72
2023/01/06 06:11:22;;;;;;;36.90;20.50;;;;;;;;;;5096143;28;20447;-72
2023/01/06 06:13:50;;;;;;;25.83;16.70;;;;;;;;;;5095570;28;20450;-72
2023/01/06 06:16:19;;;;;;;22.60;12.87;;;;;;;;;;5095715;28;20474;-71
2023/01/06 06:18:49;;;;;;;18.90;12.27;;;;;;;;;;5095594;28;20467;-72
2023/01/06 06:21:17;;;;;;;19.60;13.50;;;;;;;;;;5095679;28;20454;-72
2023/01/06 06:23:44;;;;;;;18.40;13.67;;;;;;;;;;5095367;28;20450;-72
2023/01/06 06:26:12;;;;;;;21.27;11.90;;;;;;;;;;5095438;28;20471;-72
2023/01/06 06:28:40;;;;;;;16.50;11.17;;;;;;;;;;5095516;28;20493;-71
2023/01/06 06:31:09;;;;;;;18.97;12.03;;;;;;;;;;5094498;28;20454;-72
2023/01/06 06:33:36;;;;;;;20.53;11.03;;;;;;;;;;5095223;28;20442;-72
2023/01/06 06:36:03;;;;;;;20.40;12.67;;;;;;;;;;5095712;28;20453;-72
2023/01/06 06:38:30;;;;;;;22.77;14.10;;;;;;;;;;5095307;28;20486;-71
2023/01/06 06:40:57;;;;;;;16.90;10.67;;;;;;;;;;5095139;28;20462;-72
2023/01/06 06:43:25;;;;;;;14.93;9.27;;;;;;;;;;5095417;28;21037;-72
2023/01/06 06:45:53;;;;;;;13.63;9.10;;;;;;;;;;5094883;28;20463;-71
2023/01/06 06:48:20;;;;;;;14.17;10.50;;;;;;;;;;5094517;28;20490;-71
2023/01/06 06:50:47;;;;;;;13.83;8.47;;;;;;;;;;5094835;28;20466;-72
2023/01/06 06:53:14;;;;;;;12.07;9.33;;;;;;;;;;5095097;28;20940;-72
2023/01/06 06:55:41;;;;;;;13.80;8.60;;;;;;;;;;5094600;28;20983;-71
2023/01/06 06:58:09;;;;;;;15.07;9.23;;;;;;;;;;5094849;28;20963;-71
2023/01/06 07:00:36;;;;;;;14.40;9.87;;;;;;;;;;5092555;28;20458;-72
2023/01/06 07:03:04;;;;;;;13.87;9.80;;;;;;;;;;5074369;28;20457;-72
2023/01/06 07:05:32;;;;;;;16.60;8.90;;;;;;;;;;5073114;28;20455;-71
2023/01/06 07:07:59;;;;;;;11.30;8.30;;;;;;;;;;5073849;28;20989;-72
2023/01/06 07:10:26;;;;;;;10.10;7.37;;;;;;;;;;5074165;28;20891;-72
2023/01/06 07:12:53;;;;;;;7.70;6.20;;;;;;;;;;5074155;28;20833;-71
2023/01/06 07:15:20;;;;;;;8.57;6.20;;;;;;;;;;5073691;28;20872;-71
2023/01/06 07:17:47;;;;;;;8.70;6.30;;;;;;;;;;5073880;28;20480;-72
2023/01/06 07:20:15;;;;;;;11.23;6.00;;;;;;;;;;5073958;28;20451;-71
2023/01/06 07:22:42;;;;;;;6.60;5.93;;;;;;;;;;5073920;28;20975;-71
2023/01/06 07:25:10;;;;;;;8.40;6.50;;;;;;;;;;5073721;28;20959;-72
2023/01/06 07:27:38;;;;;;;8.03;6.43;;;;;;;;;;5073789;28;20459;-71
2023/01/06 07:30:06;;;;;;;9.40;6.70;;;;;;;;;;5071735;28;20494;-71
2023/01/06 07:32:33;;;;;;;6.47;5.57;;;;;;;;;;5073707;28;20452;-71
2023/01/06 07:35:00;;;;;;;11.90;9.57;;;;;;;;;;5073174;28;20944;-71
2023/01/06 07:37:28;;;;;;;7.63;6.20;;;;;;;;;;5073414;28;20463;-72
2023/01/06 07:39:55;;;;;;;6.90;5.93;;;;;;;;;;5073092;28;20957;-71
2023/01/06 07:42:23;;;;;;;8.80;7.00;;;;;;;;;;5073476;28;20866;-71
2023/01/06 07:44:50;;;;;;;10.40;7.67;;;;;;;;;;5073077;28;20488;-71
2023/01/06 07:47:18;;;;;;;14.37;7.63;;;;;;;;;;5073312;28;20448;-72
2023/01/06 07:49:45;;;;;;;6.13;5.13;;;;;;;;;;5073077;28;20491;-71
2023/01/06 07:52:12;;;;;;;11.40;6.27;;;;;;;;;;5073326;28;20451;-71
2023/01/06 07:54:40;;;;;;;8.57;5.87;;;;;;;;;;5072851;28;20463;-71
2023/01/06 07:57:07;;;;;;;5.17;4.37;;;;;;;;;;5073260;28;20455;-71
2023/01/06 07:59:34;;;;;;;8.50;4.27;;;;;;;;;;5072775;28;21000;-71
2023/01/06 08:02:01;;;;;;;4.97;4.27;;;;;;;;;;5073272;28;20808;-72
2023/01/06 08:04:28;;;;;;;5.93;4.80;;;;;;;;;;5072024;28;20451;-72
2023/01/06 08:06:56;;;;;;;5.20;3.90;;;;;;;;;;5073512;28;20448;-71
2023/01/06 08:09:23;;;;;;;4.67;4.13;;;;;;;;;;5072924;28;20491;-71
2023/01/06 08:11:51;;;;;;;4.33;3.93;;;;;;;;;;5073157;28;20873;-71
2023/01/06 08:14:18;;;;;;;3.40;3.10;;;;;;;;;;5073018;28;20842;-71
2023/01/06 08:16:45;;;;;;;10.40;4.83;;;;;;;;;;5072385;28;20452;-71
2023/01/06 08:19:12;;;;;;;5.20;4.40;;;;;;;;;;5073070;28;20471;-72
2023/01/06 08:21:40;;;;;;;3.67;3.37;;;;;;;;;;5073250;28;20854;-71
2023/01/06 08:24:07;;;;;;;3.87;3.47;;;;;;;;;;5072841;28;20805;-71
2023/01/06 08:26:34;;;;;;;4.20;3.80;;;;;;;;;;5073028;28;20452;-71
2023/01/06 08:29:03;;;;;;;3.40;2.83;;;;;;;;;;5072894;28;20995;-72
2023/01/06 08:31:30;;;;;;;3.40;2.20;;;;;;;;;;5072295;28;20996;-71
2023/01/06 08:33:57;;;;;;;2.63;2.10;;;;;;;;;;5072740;28;20929;-71
2023/01/06 08:36:24;;;;;;;2.20;1.90;;;;;;;;;;5073086;28;20944;-72
2023/01/06 08:38:52;;;;;;;4.67;2.00;;;;;;;;;;5072641;28;21003;-72
2023/01/06 08:41:19;;;;;;;2.13;1.93;;;;;;;;;;5073140;28;20447;-72
2023/01/06 08:43:47;;;;;;;2.33;1.97;;;;;;;;;;5072381;28;20447;-72
2023/01/06 08:46:16;;;;;;;2.90;2.40;;;;;;;;;;5072810;28;20447;-73
2023/01/06 08:48:44;;;;;;;2.97;2.37;;;;;;;;;;5072795;28;20468;-72
2023/01/06 08:51:12;;;;;;;2.47;2.00;;;;;;;;;;5072963;28;20492;-71
2023/01/06 08:53:39;;;;;;;3.03;2.10;;;;;;;;;;5072500;28;20448;-72
2023/01/06 08:56:12;;;;;;;2.77;2.30;;;;;;;;;;5072616;28;20455;-72
2023/01/06 08:58:39;;;;;;;2.70;1.93;;;;;;;;;;5072610;28;20472;-72
2023/01/06 09:01:06;;;;;;;1.73;1.40;;;;;;;;;;5073164;28;20450;-72
2023/01/06 09:03:34;;;;;;;2.00;1.70;;;;;;;;;;5072637;28;20444;-74
2023/01/06 09:06:01;;;;;;;4.10;2.77;;;;;;;;;;5072059;28;20956;-73
2023/01/06 09:08:28;;;;;;;8.40;4.87;;;;;;;;;;5073099;28;20468;-72
2023/01/06 09:10:55;;;;;;;2.73;2.10;;;;;;;;;;5072753;28;20494;-73
2023/01/06 09:13:23;;;;;;;2.07;1.73;;;;;;;;;;5072918;28;20447;-74
2023/01/06 09:15:51;;;;;;;4.27;3.10;;;;;;;;;;5072473;28;20452;-73
2023/01/06 09:18:18;;;;;;;4.03;2.20;;;;;;;;;;5072224;28;20526;-72
2023/01/06 09:20:48;;;;;;;2.90;2.20;;;;;;;;;;5072411;28;20451;-73
2023/01/06 09:23:15;;;;;;;4.33;2.37;;;;;;;;;;5072634;28;20459;-72
2023/01/06 09:25:42;;;;;;;2.60;1.93;;;;;;;;;;5071939;28;20458;-73
2023/01/06 09:28:10;;;;;;;1.70;1.57;;;;;;;;;;5072425;28;20467;-73
2023/01/06 09:30:38;;;;;;;2.10;1.70;;;;;;;;;;5073980;28;20519;-72
2023/01/06 09:33:06;;;;;;;1.90;1.63;;;;;;;;;;5076173;28;20455;-72
2023/01/06 09:35:33;;;;;;;2.47;1.43;;;;;;;;;;5075933;28;20455;-72
2023/01/06 09:38:02;;;;;;;2.07;1.70;;;;;;;;;;5076099;28;21027;-73
2023/01/06 09:40:32;;;;;;;1.70;1.60;;;;;;;;;;5072654;28;20822;-73
2023/01/06 09:43:05;;;;;;;2.57;1.80;;;;;;;;;;5076567;28;20435;-72
2023/01/06 09:45:36;;;;;;;3.17;1.60;;;;;;;;;;5075945;28;20432;-73
2023/01/06 09:48:04;;;;;;;2.20;1.80;;;;;;;;;;5076052;28;20479;-72
2023/01/06 09:50:34;;;;;;;2.13;1.20;;;;;;;;;;5076009;28;20824;-72
2023/01/06 09:53:04;;;;;;;1.70;1.37;;;;;;;;;;5075929;28;20459;-72
2023/01/06 09:55:33;;;;;;;1.50;1.20;;;;;;;;;;5076079;28;20439;-72
2023/01/06 09:58:04;;;;;;;2.30;1.83;;;;;;;;;;5076084;28;20475;-72
2023/01/06 10:00:35;;;;;;;2.53;1.70;;;;;;;;;;5075853;28;20439;-72
2023/01/06 10:03:02;;;;;;;1.90;1.40;;;;;;;;;;5076132;28;20436;-73
2023/01/06 10:05:42;;;;;;;3.97;3.00;;;;;;;;;;5075055;28;20466;-73
2023/01/06 10:08:15;;;;;;;1.60;1.30;;;;;;;;;;5075992;28;20520;-72
2023/01/06 10:10:46;;;;;;;3.40;1.90;;;;;;;;;;5075950;28;21103;-73
2023/01/06 10:13:23;;;;;;;3.13;1.80;;;;;;;;;;5076044;28;20459;-73
2023/01/06 10:15:53;;;;;;;2.43;1.50;;;;;;;;;;5075980;28;20440;-73
2023/01/06 10:18:26;;;;;;;2.13;1.80;;;;;;;;;;5075521;28;20479;-73
2023/01/06 10:21:01;;;;;;;3.73;1.50;;;;;;;;;;5075988;28;20815;-75
2023/01/06 10:23:46;;;;;;;1.90;1.50;;;;;;;;;;5075544;28;20435;-73
2023/01/06 10:26:13;;;;;;;1.90;1.30;;;;;;;;;;5075813;28;20932;-73
2023/01/06 10:28:42;;;;;;;3.27;1.67;;;;;;;;;;5074328;28;21715;-74
2023/01/06 10:31:12;;;;;;;2.83;2.53;;;;;;;;;;5074175;28;20475;-73
2023/01/06 10:33:42;;;;;;;3.70;2.10;;;;;;;;;;5074012;28;20436;-72
2023/01/06 10:36:12;;;;;;;1.97;1.43;;;;;;;;;;5074020;28;20436;-73
2023/01/06 10:38:41;;;;;;;3.23;1.87;;;;;;;;;;5074446;28;20880;-73
2023/01/06 10:41:13;;;;;;;2.10;1.87;;;;;;;;;;5077075;28;20451;-73
2023/01/06 10:43:40;;;;;;;3.73;3.10;;;;;;;;;;5094381;28;20997;-72
2023/01/06 10:46:08;;;;;;;2.40;1.60;;;;;;;;;;5093826;28;20473;-73
2023/01/06 10:48:35;;;;;;;2.70;2.20;;;;;;;;;;5093864;28;20470;-74
2023/01/06 10:51:26;;;;;;;4.40;3.57;;;;;;;;;;5093964;28;20497;-73
2023/01/06 10:53:54;;;;;;;3.03;2.47;;;;;;;;;;5093513;28;20553;-73
2023/01/06 10:56:22;;;;;;;3.07;2.57;;;;;;;;;;5093902;28;20458;-73
2023/01/06 10:58:53;;;;;;;2.00;1.60;;;;;;;;;;5093487;28;20498;-74
2023/01/06 11:01:23;;;;;;;2.33;1.60;;;;;;;;;;5092947;28;20431;-73
2023/01/06 11:04:06;;;;;;;2.30;1.50;;;;;;;;;;5093943;28;20446;-73
2023/01/06 11:06:34;;;;;;;4.77;1.40;;;;;;;;;;5093769;28;20466;-73
2023/01/06 11:09:07;;;;;;;2.00;1.67;;;;;;;;;;5093588;28;20474;-73
2023/01/06 11:11:45;;;;;;;2.23;1.83;;;;;;;;;;5093868;28;20502;-73
2023/01/06 11:14:16;;;;;;;1.70;1.30;;;;;;;;;;5093745;28;20446;-75
2023/01/06 11:16:49;;;;;;;1.57;1.40;;;;;;;;;;5093757;28;20434;-75
2023/01/06 11:19:23;;;;;;;1.70;1.40;;;;;;;;;;5094008;28;20466;-75
2023/01/06 11:21:50;;;;;;;1.57;1.30;;;;;;;;;;5094366;28;20803;-73
2023/01/06 11:24:18;;;;;;;2.07;1.40;;;;;;;;;;5094359;28;20451;-73
2023/01/06 11:26:51;;;;;;;3.10;1.50;;;;;;;;;;5094138;28;20525;-73
2023/01/06 11:29:25;;;;;;;1.83;1.53;;;;;;;;;;5093719;28;20509;-74
2023/01/06 11:31:52;;;;;;;2.10;1.50;;;;;;;;;;5094239;28;20490;-74
2023/01/06 11:34:22;;;;;;;2.63;1.20;;;;;;;;;;5094434;28;20474;-75
2023/01/06 11:36:49;;;;;;;1.87;1.53;;;;;;;;;;5094494;28;20888;-75
2023/01/06 11:39:20;;;;;;;2.03;1.63;;;;;;;;;;5094113;28;20913;-75
2023/01/06 11:41:50;;;;;;;2.20;1.33;;;;;;;;;;5094298;28;20431;-73
2023/01/06 11:44:19;;;;;;;1.60;1.30;;;;;;;;;;5094372;28;20431;-73
2023/01/06 11:46:48;;;;;;;1.93;1.47;;;;;;;;;;5094474;28;20499;-73
2023/01/06 11:49:18;;;;;;;1.90;1.63;;;;;;;;;;5093870;28;20482;-73
2023/01/06 11:51:47;;;;;;;1.60;1.30;;;;;;;;;;5093475;28;20483;-73
2023/01/06 11:54:23;;;;;;;2.37;2.10;;;;;;;;;;5093998;28;20508;-75
2023/01/06 11:56:59;;;;;;;6.50;1.83;;;;;;;;;;5094295;28;20903;-75
2023/01/06 11:59:28;;;;;;;3.63;2.53;;;;;;;;;;5093932;28;20475;-76
2023/01/06 12:01:59;;;;;;;2.70;1.67;;;;;;;;;;5093782;28;20458;-72
2023/01/06 12:04:30;;;;;;;2.00;1.80;;;;;;;;;;5093733;28;20486;-73
2023/01/06 12:07:00;;;;;;;1.77;1.30;;;;;;;;;;5094228;28;20454;-73
2023/01/06 12:09:31;;;;;;;1.87;1.50;;;;;;;;;;5093983;28;20845;-73
2023/01/06 12:12:02;;;;;;;2.20;1.73;;;;;;;;;;5093993;28;20511;-73
2023/01/06 12:14:31;;;;;;;2.93;1.80;;;;;;;;;;5093883;28;20462;-73
2023/01/06 12:17:04;;;;;;;4.00;2.20;;;;;;;;;;5093913;28;20454;-72
2023/01/06 12:19:34;;;;;;;2.20;1.80;;;;;;;;;;5093558;28;20872;-72
2023/01/06 12:22:02;;;;;;;2.40;1.90;;;;;;;;;;5093983;28;20450;-72
2023/01/06 12:24:32;;;;;;;5.43;2.10;;;;;;;;;;5092761;28;20454;-72
2023/01/06 12:27:01;;;;;;;4.80;1.80;;;;;;;;;;5093566;28;20504;-72
2023/01/06 12:29:29;;;;;;;3.40;3.10;;;;;;;;;;5092909;28;20471;-72
2023/01/06 12:32:00;;;;;;;2.90;2.47;;;;;;;;;;5093260;28;20490;-72
2023/01/06 12:34:30;;;;;;;3.37;2.80;;;;;;;;;;5093479;28;20438;-72
2023/01/06 12:37:02;;;;;;;3.30;2.40;;;;;;;;;;5093495;28;20446;-72
2023/01/06 12:39:33;;;;;;;2.93;2.20;;;;;;;;;;5093228;28;20486;-72
2023/01/06 12:42:04;;;;;;;2.53;2.03;;;;;;;;;;5093325;28;20450;-72
2023/01/06 12:44:36;;;;;;;3.93;1.90;;;;;;;;;;5093241;28;21006;-72
2023/01/06 12:47:07;;;;;;;2.93;2.37;;;;;;;;;;5093583;28;20434;-72
2023/01/06 12:49:38;;;;;;;2.60;1.80;;;;;;;;;;5093474;28;20473;-72
2023/01/06 12:52:09;;;;;;;4.43;2.27;;;;;;;;;;5093127;28;20516;-72
2023/01/06 12:54:37;;;;;;;2.43;1.80;;;;;;;;;;5093403;28;20442;-72
2023/01/06 12:57:15;;;;;;;2.20;2.00;;;;;;;;;;5093407;28;20457;-72
2023/01/06 12:59:48;;;;;;;2.37;1.90;;;;;;;;;;5093353;28;20488;-72
2023/01/06 13:02:20;;;;;;;2.60;2.03;;;;;;;;;;5093573;28;20900;-72
2023/01/06 13:05:12;;;;;;;5.03;4.10;;;;;;;;;;5097107;28;20445;-72
2023/01/06 13:07:43;;;;;;;2.57;2.03;;;;;;;;;;5097499;28;20454;-72
2023/01/06 13:10:21;;;;;;;4.30;2.20;;;;;;;;;;5097208;28;20430;-72
2023/01/06 13:12:59;;;;;;;3.43;2.77;;;;;;;;;;5094629;28;20426;-73
2023/01/06 13:15:28;;;;;;;4.20;2.87;;;;;;;;;;5096688;28;20445;-72
2023/01/06 13:17:59;;;;;;;1.90;1.53;;;;;;;;;;5096492;28;20474;-72
2023/01/06 13:20:28;;;;;;;2.00;1.50;;;;;;;;;;5097213;28;20438;-72
2023/01/06 13:23:01;;;;;;;2.37;1.97;;;;;;;;;;5097158;28;20470;-72
2023/01/06 13:25:38;;;;;;;4.00;2.40;;;;;;;;;;5096565;28;20454;-73
2023/01/06 13:28:09;;;;;;;2.93;1.73;;;;;;;;;;5096381;28;20539;-72
2023/01/06 13:30:54;;;;;;;2.00;1.73;;;;;;;;;;5095700;28;20451;-72
2023/01/06 13:33:39;;;;;;;2.10;1.40;;;;;;;;;;5091731;28;20450;-73
2023/01/06 13:36:17;;;;;;;4.23;2.17;;;;;;;;;;5093732;28;20965;-72
2023/01/06 13:38:59;;;;;;;4.00;2.57;;;;;;;;;;5095028;28;20478;-73
2023/01/06 13:41:30;;;;;;;2.67;2.00;;;;;;;;;;5092102;28;20466;-73
2023/01/06 13:43:59;;;;;;;2.20;1.53;;;;;;;;;;5094637;28;21162;-73
2023/01/06 13:46:27;;;;;;;4.93;3.60;;;;;;;;;;5095039;28;20456;-73
2023/01/06 13:48:55;;;;;;;3.40;2.10;;;;;;;;;;5094642;28;20524;-73
2023/01/06 13:51:27;;;;;;;3.93;2.33;;;;;;;;;;5094437;28;20872;-72
2023/01/06 13:53:55;;;;;;;3.33;1.90;;;;;;;;;;5094499;28;20431;-72
2023/01/06 13:56:32;;;;;;;4.40;2.80;;;;;;;;;;5095976;28;20445;-72
2023/01/06 13:59:19;;;;;;;5.93;2.10;;;;;;;;;;5095205;28;20486;-72
2023/01/06 14:01:46;;;;;;;3.40;1.97;;;;;;;;;;5096171;28;20442;-71
2023/01/06 14:04:31;;;;;;;2.33;1.70;;;;;;;;;;5095738;28;20821;-73
2023/01/06 14:06:59;;;;;;;2.50;2.00;;;;;;;;;;5095701;28;20450;-73
2023/01/06 14:09:26;;;;;;;2.50;2.00;;;;;;;;;;5096221;28;20495;-72
2023/01/06 14:11:54;;;;;;;3.13;2.30;;;;;;;;;;5095753;28;20490;-72
2023/01/06 14:14:25;;;;;;;3.80;1.80;;;;;;;;;;5094848;28;20455;-72
2023/01/06 14:16:53;;;;;;;6.03;5.07;;;;;;;;;;5095825;28;20511;-72
2023/01/06 14:19:21;;;;;;;3.60;2.13;;;;;;;;;;5095687;28;20501;-72
2023/01/06 14:21:49;;;;;;;2.43;1.90;;;;;;;;;;5095533;28;20962;-72
2023/01/06 14:24:22;;;;;;;2.10;1.60;;;;;;;;;;5095781;28;20468;-72
2023/01/06 14:26:51;;;;;;;3.07;2.67;;;;;;;;;;5095397;28;20454;-72
2023/01/06 14:29:37;;;;;;;2.30;1.97;;;;;;;;;;5094746;28;20987;-72
2023/01/06 14:32:06;;;;;;;2.87;2.13;;;;;;;;;;5095662;28;20471;-72
2023/01/06 14:34:33;;;;;;;1.80;1.50;;;;;;;;;;5095182;28;20473;-72
2023/01/06 14:37:01;;;;;;;3.00;1.90;;;;;;;;;;5095553;28;20454;-72
2023/01/06 14:39:30;;;;;;;8.27;5.33;;;;;;;;;;5095220;28;20482;-72
2023/01/06 14:42:00;;;;;;;2.93;2.40;;;;;;;;;;5089990;28;20959;-72
2023/01/06 14:44:31;;;;;;;2.70;2.00;;;;;;;;;;5078889;28;20459;-73
2023/01/06 14:47:02;;;;;;;2.63;1.80;;;;;;;;;;5075642;28;20456;-72
2023/01/06 14:49:33;;;;;;;2.60;1.70;;;;;;;;;;5074826;28;20525;-72